createdAt,value
2019-04-22T00:01:51.340Z,99791.48
2019-04-22T00:04:34.106Z,99790.38
2019-04-22T00:07:12.091Z,99787.53
2019-04-22T00:09:49.924Z,99789.80
2019-04-22T00:12:13.756Z,99790.09
2019-04-22T00:14:33.961Z,99793.48
2019-04-22T00:19:45.694Z,99781.98
2019-04-22T00:22:10.477Z,99779.84
2019-04-22T00:24:30.738Z,99771.31
2019-04-22T00:27:05.269Z,99769.27
2019-04-22T00:32:16.544Z,99770.90
2019-04-22T00:34:43.776Z,99764.30
2019-04-22T00:37:17.554Z,99767.75
2019-04-22T00:42:15.289Z,99760.43
2019-04-22T00:44:47.089Z,99762.95
2019-04-22T00:47:12.607Z,99756.02
2019-04-22T00:50:07.897Z,99752.47
2019-04-22T00:52:10.828Z,99750.59
2019-04-22T00:54:36.018Z,99758.86
2019-04-22T00:57:02.791Z,99762.13
2019-04-22T00:59:35.114Z,99755.91
2019-04-22T01:02:00.714Z,99753.32
2019-04-22T01:04:34.635Z,99756.27
2019-04-22T01:07:01.519Z,99752.05
2019-04-22T01:09:33.018Z,99752.88
2019-04-22T01:11:53.720Z,99753.47
2019-04-22T01:14:23.845Z,99749.00
2019-04-22T01:16:55.133Z,99748.75
2019-04-22T01:19:26.027Z,99749.11
2019-04-22T01:21:52.448Z,99738.86
2019-04-22T01:24:20.778Z,99734.62
2019-04-22T01:26:43.506Z,99733.20
2019-04-22T01:29:11.290Z,99739.20
2019-04-22T01:31:30.879Z,99724.84
2019-04-22T01:34:10.013Z,99732.73
2019-04-22T01:36:43.070Z,99730.40
2019-04-22T01:39:16.468Z,99725.83
2019-04-22T01:41:55.149Z,99727.10
2019-04-22T01:44:22.601Z,99721.56
2019-04-22T01:46:47.691Z,99721.07
2019-04-22T01:49:17.401Z,99719.23
2019-04-22T01:51:54.664Z,99716.86
2019-04-22T01:54:12.916Z,99713.77
2019-04-22T01:56:43.130Z,99711.18
2019-04-22T01:58:59.047Z,99706.16
2019-04-22T02:01:37.169Z,99709.92
2019-04-22T02:04:08.955Z,99708.77
2019-04-22T02:06:35.089Z,99706.65
2019-04-22T02:09:09.526Z,99700.06
2019-04-22T02:12:06.426Z,99693.02
2019-04-22T02:14:25.329Z,99695.02
2019-04-22T02:16:50.330Z,99695.23
2019-04-22T02:19:22.865Z,99691.69
2019-04-22T02:21:47.024Z,99690.98
2019-04-22T02:24:18.535Z,99689.70
2019-04-22T02:26:40.468Z,99685.69
2019-04-22T02:29:17.224Z,99681.70
2019-04-22T02:31:45.294Z,99678.52
2019-04-22T02:41:40.907Z,99674.23
2019-04-22T02:44:13.893Z,99674.17
2019-04-22T02:46:58.949Z,99671.11
2019-04-22T02:49:11.193Z,99671.56
2019-04-22T02:51:33.481Z,99664.55
2019-04-22T02:56:34.132Z,99668.54
2019-04-22T03:06:30.465Z,99652.42
2019-04-22T03:09:01.284Z,99647.27
2019-04-22T03:11:25.313Z,99645.23
2019-04-22T03:13:55.106Z,99642.41
2019-04-22T03:16:27.140Z,99636.94
2019-04-22T03:18:57.252Z,99638.71
2019-04-22T03:21:17.922Z,99636.08
2019-04-22T03:23:55.690Z,99626.77
2019-04-22T03:26:43.032Z,99635.29
2019-04-22T03:35:09.729Z,99636.53
2019-04-22T03:46:53.562Z,99619.11
2019-04-22T03:49:30.863Z,99621.09
2019-04-22T03:54:26.012Z,99627.39
2019-04-22T03:59:22.130Z,99622.81
2019-04-22T04:01:48.420Z,99612.55
2019-04-22T04:06:50.195Z,99622.27
2019-04-22T04:09:14.272Z,99627.19
2019-04-22T04:11:45.656Z,99630.92
2019-04-22T04:16:30.379Z,99630.70
2019-04-22T04:19:07.083Z,99632.02
2019-04-22T04:26:42.715Z,99615.84
2019-04-22T04:36:29.934Z,99613.83
2019-04-22T04:43:58.923Z,99610.61
2019-04-22T04:46:24.831Z,99617.77
2019-04-22T04:48:53.207Z,99609.82
2019-04-22T04:53:41.328Z,99613.28
2019-04-22T04:56:22.895Z,99614.48
2019-04-22T05:01:17.510Z,99620.33
2019-04-22T05:04:00.215Z,99616.52
2019-04-22T05:06:07.474Z,99619.89
2019-04-22T05:08:54.702Z,99620.08
2019-04-22T05:13:39.991Z,99611.33
2019-04-22T05:16:17.490Z,99617.87
2019-04-22T05:18:29.417Z,99613.51
2019-04-22T05:23:30.404Z,99615.50
2019-04-22T05:25:51.318Z,99604.91
2019-04-22T05:28:15.092Z,99606.50
2019-04-22T05:30:45.820Z,99608.83
2019-04-22T05:33:18.359Z,99611.30
2019-04-22T05:35:46.436Z,99610.05
2019-04-22T05:40:34.792Z,99607.34
2019-04-22T05:43:09.366Z,99606.70
2019-04-22T05:45:38.662Z,99600.84
2019-04-22T05:48:30.512Z,99603.45
2019-04-22T05:50:39.353Z,99599.13
2019-04-22T05:53:00.470Z,99596.50
2019-04-22T05:55:36.342Z,99594.80
2019-04-22T05:58:02.901Z,99600.38
2019-04-22T06:00:47.597Z,99604.25
2019-04-22T06:03:07.197Z,99599.22
2019-04-22T06:05:47.363Z,99600.69
2019-04-22T06:08:20.224Z,99594.86
2019-04-22T06:10:53.376Z,99599.26
2019-04-22T06:13:14.573Z,99601.42
2019-04-22T06:15:44.117Z,99592.52
2019-04-22T06:18:22.745Z,99589.80
2019-04-22T06:20:56.960Z,99584.76
2019-04-22T06:23:24.173Z,99586.05
2019-04-22T06:25:57.511Z,99584.73
2019-04-22T06:28:24.480Z,99580.47
2019-04-22T06:30:50.348Z,99577.36
2019-04-22T06:33:18.796Z,99576.36
2019-04-22T06:35:56.338Z,99565.29
2019-04-22T06:38:28.635Z,99558.52
2019-04-22T06:40:39.106Z,99559.91
2019-04-22T06:43:08.783Z,99565.41
2019-04-22T06:45:36.610Z,99566.03
2019-04-22T06:48:07.048Z,99551.76
2019-04-22T06:50:40.477Z,99556.42
2019-04-22T06:53:06.788Z,99547.00
2019-04-22T06:55:35.731Z,99542.36
2019-04-22T06:58:01.504Z,99539.43
2019-04-22T07:00:32.414Z,99548.88
2019-04-22T07:03:23.278Z,99552.13
2019-04-22T07:05:28.059Z,99545.72
2019-04-22T07:12:49.220Z,99530.78
2019-04-22T07:15:40.198Z,99536.02
2019-04-22T07:17:58.166Z,99541.03
2019-04-22T07:20:17.419Z,99527.33
2019-04-22T07:22:45.411Z,99533.29
2019-04-22T07:25:32.798Z,99527.41
2019-04-22T07:27:49.963Z,99524.16
2019-04-22T07:30:16.994Z,99536.05
2019-04-22T07:35:16.896Z,99530.34
2019-04-22T07:37:41.856Z,99526.63
2019-04-22T07:40:03.666Z,99537.00
2019-04-22T07:42:36.906Z,99528.53
2019-04-22T07:45:05.282Z,99521.34
2019-04-22T07:50:09.717Z,99523.92
2019-04-22T07:54:58.510Z,99515.44
2019-04-22T08:00:03.010Z,99517.80
2019-04-22T08:02:35.539Z,99530.79
2019-04-22T08:07:24.214Z,99525.56
2019-04-22T08:10:00.115Z,99524.70
2019-04-22T08:12:20.199Z,99516.05
2019-04-22T08:17:43.475Z,99516.52
2019-04-22T08:19:50.654Z,99509.39
2019-04-22T08:22:14.393Z,99511.83
2019-04-22T08:27:10.322Z,99503.36
2019-04-22T08:29:53.485Z,99511.58
2019-04-22T08:32:28.498Z,99510.67
2019-04-22T08:34:37.042Z,99507.38
2019-04-22T08:39:38.555Z,99508.50
2019-04-22T08:41:58.784Z,99512.98
2019-04-22T08:44:52.124Z,99507.22
2019-04-22T08:47:17.760Z,99502.02
2019-04-22T08:49:39.081Z,99510.50
2019-04-22T08:52:01.035Z,99505.08
2019-04-22T08:54:33.958Z,99491.66
2019-04-22T08:56:58.293Z,99502.95
2019-04-22T08:59:22.114Z,99498.45
2019-04-22T09:01:51.936Z,99506.58
2019-04-22T09:04:20.537Z,99498.45
2019-04-22T09:07:10.472Z,99498.30
2019-04-22T09:09:24.925Z,99499.47
2019-04-22T09:11:57.834Z,99496.86
2019-04-22T09:14:15.698Z,99491.91
2019-04-22T09:16:49.870Z,99483.02
2019-04-22T09:19:15.032Z,99484.17
2019-04-22T09:21:45.506Z,99483.95
2019-04-22T09:24:16.631Z,99472.89
2019-04-22T09:26:41.786Z,99487.74
2019-04-22T09:29:17.985Z,99474.58
2019-04-22T09:31:42.317Z,99476.02
2019-04-22T09:34:06.464Z,99477.88
2019-04-22T09:36:33.808Z,99473.63
2019-04-22T09:39:06.570Z,99481.73
2019-04-22T09:41:36.776Z,99474.38
2019-04-22T09:46:37.516Z,99463.96
2019-04-22T09:51:25.318Z,99461.13
2019-04-22T09:54:01.175Z,99457.97
2019-04-22T09:58:56.991Z,99463.55
2019-04-22T10:01:39.023Z,99451.31
2019-04-22T10:03:56.358Z,99445.95
2019-04-22T10:06:33.565Z,99445.56
2019-04-22T10:09:01.780Z,99440.47
2019-04-22T10:11:21.074Z,99444.84
2019-04-22T10:13:47.995Z,99434.59
2019-04-22T10:16:18.536Z,99431.53
2019-04-22T10:18:49.031Z,99429.47
2019-04-22T10:21:16.555Z,99419.71
2019-04-22T10:26:15.979Z,99420.58
2019-04-22T10:28:44.592Z,99413.16
2019-04-22T10:31:10.001Z,99412.31
2019-04-22T10:33:34.199Z,99396.91
2019-04-22T10:35:39.532Z,99409.61
2019-04-22T10:38:06.338Z,99402.23
2019-04-22T10:40:34.615Z,99405.20
2019-04-22T10:43:01.521Z,99404.94
2019-04-22T10:45:30.238Z,99397.06
2019-04-22T10:47:58.339Z,99385.22
2019-04-22T10:50:50.642Z,99385.70
2019-04-22T10:53:17.814Z,99382.13
2019-04-22T10:55:47.761Z,99395.92
2019-04-22T10:58:15.055Z,99376.48
2019-04-22T11:00:43.357Z,99377.05
2019-04-22T11:03:33.053Z,99372.27
2019-04-22T11:06:01.256Z,99365.06
2019-04-22T11:08:34.560Z,99365.66
2019-04-22T11:11:10.657Z,99362.73
2019-04-22T11:13:26.120Z,99354.94
2019-04-22T11:15:53.118Z,99364.32
2019-04-22T11:18:19.949Z,99354.20
2019-04-22T11:20:47.400Z,99337.66
2019-04-22T11:23:14.683Z,99346.94
2019-04-22T11:25:41.669Z,99335.67
2019-04-22T11:28:09.767Z,99339.12
2019-04-22T11:30:36.837Z,99331.37
2019-04-22T11:33:04.548Z,99330.02
2019-04-22T11:35:32.050Z,99334.64
2019-04-22T11:37:59.239Z,99314.38
2019-04-22T11:40:36.162Z,99326.28
2019-04-22T11:42:56.401Z,99309.20
2019-04-22T11:45:23.802Z,99311.16
2019-04-22T11:47:51.100Z,99321.26
2019-04-22T11:50:19.578Z,99312.22
2019-04-22T11:52:47.165Z,99308.16
2019-04-22T11:55:14.955Z,99308.13
2019-04-22T11:57:43.069Z,99300.23
2019-04-22T12:00:12.702Z,99300.75
2019-04-22T12:02:40.959Z,99297.86
2019-04-22T12:05:11.968Z,99289.63
2019-04-22T12:07:40.942Z,99288.13
2019-04-22T12:10:17.870Z,99292.77
2019-04-22T12:12:37.153Z,99289.75
2019-04-22T12:15:06.299Z,99288.83
2019-04-22T12:17:33.886Z,99284.20
2019-04-22T12:20:03.706Z,99283.66
2019-04-22T12:22:29.489Z,99268.34
2019-04-22T12:24:56.728Z,99271.76
2019-04-22T12:27:24.838Z,99281.23
2019-04-22T12:29:53.162Z,99268.53
2019-04-22T12:32:21.304Z,99272.36
2019-04-22T12:34:49.315Z,99256.56
2019-04-22T12:37:25.807Z,99252.89
2019-04-22T12:39:45.369Z,99263.97
2019-04-22T12:42:13.162Z,99251.18
2019-04-22T12:44:42.050Z,99261.55
2019-04-22T12:47:11.006Z,99259.81
2019-04-22T12:49:40.473Z,99253.30
2019-04-22T12:52:07.306Z,99240.16
2019-04-22T12:54:35.130Z,99241.27
2019-04-22T12:57:02.003Z,99233.95
2019-04-22T12:59:29.979Z,99220.94
2019-04-22T13:01:58.499Z,99226.40
2019-04-22T13:04:25.411Z,99228.47
2019-04-22T13:06:53.469Z,99228.02
2019-04-22T13:09:21.249Z,99222.38
2019-04-22T13:11:48.968Z,99217.84
2019-04-22T13:14:16.808Z,99216.18
2019-04-22T13:16:44.885Z,99194.39
2019-04-22T13:19:15.233Z,99192.77
2019-04-22T13:21:40.756Z,99193.88
2019-04-22T13:24:08.996Z,99204.55
2019-04-22T13:26:36.013Z,99183.67
2019-04-22T13:29:03.240Z,99180.90
2019-04-22T13:31:30.894Z,99183.82
2019-04-22T13:34:01.710Z,99178.92
2019-04-22T13:36:27.927Z,99179.97
2019-04-22T13:38:55.337Z,99167.83
2019-04-22T13:41:33.027Z,99174.50
2019-04-22T13:43:53.787Z,99161.13
2019-04-22T13:46:21.941Z,99162.77
2019-04-22T13:49:17.201Z,99159.31
2019-04-22T13:51:52.573Z,99163.73
2019-04-22T13:54:43.750Z,99156.08
2019-04-22T13:56:38.816Z,99147.48
2019-04-22T13:58:56.373Z,99162.91
2019-04-22T14:01:16.468Z,99162.70
2019-04-22T14:04:12.451Z,99158.36
2019-04-22T14:06:40.703Z,99153.66
2019-04-22T14:09:07.686Z,99142.45
2019-04-22T14:11:43.918Z,99150.48
2019-04-22T14:14:05.092Z,99143.34
2019-04-22T14:16:33.147Z,99146.22
2019-04-22T14:19:00.251Z,99136.72
2019-04-22T14:21:27.256Z,99147.57
2019-04-22T14:23:54.034Z,99152.66
2019-04-22T14:26:20.854Z,99136.27
2019-04-22T14:29:08.074Z,99155.88
2019-04-22T14:31:36.234Z,99141.19
2019-04-22T14:34:05.856Z,99151.61
2019-04-22T14:36:33.082Z,99142.55
2019-04-22T14:38:59.990Z,99135.56
2019-04-22T14:41:42.612Z,99130.66
2019-04-22T14:45:02.598Z,99127.46
2019-04-22T14:47:00.386Z,99127.10
2019-04-22T14:49:19.445Z,99119.77
2019-04-22T14:51:46.427Z,99114.59
2019-04-22T14:54:07.203Z,99108.95
2019-04-22T14:56:20.164Z,99111.42
2019-04-22T14:58:47.244Z,99116.02
2019-04-22T15:01:14.872Z,99122.42
2019-04-22T15:03:43.996Z,99122.34
2019-04-22T15:06:10.675Z,99111.20
2019-04-22T15:08:37.492Z,99112.96
2019-04-22T15:11:06.234Z,99106.92
2019-04-22T15:13:33.550Z,99095.60
2019-04-22T15:16:18.366Z,99104.51
2019-04-22T15:19:07.690Z,99098.86
2019-04-22T15:21:34.886Z,99100.27
2019-04-22T15:24:20.582Z,99096.17
2019-04-22T15:26:48.458Z,99091.55
2019-04-22T15:29:15.598Z,99085.13
2019-04-22T15:31:42.593Z,99092.10
2019-04-22T15:34:10.259Z,99085.26
2019-04-22T15:36:37.845Z,99088.96
2019-04-22T15:39:07.246Z,99081.16
2019-04-22T15:41:34.653Z,99085.13
2019-04-22T15:44:21.941Z,99079.05
2019-04-22T15:47:09.124Z,99087.45
2019-04-22T15:49:36.073Z,99086.52
2019-04-22T15:52:05.731Z,99070.00
2019-04-22T15:54:31.984Z,99079.34
2019-04-22T15:56:59.192Z,99067.28
2019-04-22T15:59:44.484Z,99071.05
2019-04-22T16:01:58.105Z,99082.78
2019-04-22T16:04:23.226Z,99048.66
2019-04-22T16:06:50.029Z,99073.13
2019-04-22T16:09:17.362Z,99072.43
2019-04-22T16:11:45.716Z,99075.13
2019-04-22T16:14:15.119Z,99068.97
2019-04-22T16:16:43.045Z,99071.84
2019-04-22T16:19:09.915Z,99078.36
2019-04-22T16:21:45.515Z,99089.33
2019-04-22T16:24:14.342Z,99080.31
2019-04-22T16:26:48.548Z,99081.98
2019-04-22T16:29:16.448Z,99075.82
2019-04-22T16:31:43.429Z,99077.86
2019-04-22T16:34:11.353Z,99076.30
2019-04-22T16:36:38.810Z,99071.00
2019-04-22T16:39:08.992Z,99069.28
2019-04-22T16:41:37.119Z,99076.64
2019-04-22T16:44:06.754Z,99086.90
2019-04-22T16:46:33.866Z,99079.63
2019-04-22T16:49:01.420Z,99075.55
2019-04-22T16:51:29.710Z,99079.02
2019-04-22T16:53:57.864Z,99081.55
2019-04-22T16:56:24.912Z,99074.70
2019-04-22T16:58:52.671Z,99062.86
2019-04-22T17:01:48.482Z,99082.06
2019-04-22T17:04:34.725Z,99079.57
2019-04-22T17:07:01.871Z,99069.70
2019-04-22T17:09:29.872Z,99069.80
2019-04-22T17:11:58.074Z,99085.66
2019-04-22T17:14:32.765Z,99076.74
2019-04-22T17:16:54.754Z,99075.62
2019-04-22T17:19:21.787Z,99074.20
2019-04-22T17:21:49.849Z,99070.20
2019-04-22T17:24:19.500Z,99068.48
2019-04-22T17:26:46.604Z,99071.14
2019-04-22T17:29:14.505Z,99072.27
2019-04-22T17:31:50.265Z,99075.70
2019-04-22T17:34:11.529Z,99078.92
2019-04-22T17:36:38.427Z,99078.87
2019-04-22T17:39:24.704Z,99083.73
2019-04-22T17:41:55.757Z,99070.89
2019-04-22T17:44:38.108Z,99083.06
2019-04-22T17:46:58.908Z,99084.22
2019-04-22T17:49:51.768Z,99069.88
2019-04-22T17:54:49.259Z,99078.91
2019-04-22T17:57:18.649Z,99079.63
2019-04-22T17:59:41.831Z,99088.77
2019-04-22T18:02:13.358Z,99082.99
2019-04-22T18:04:23.405Z,99083.65
2019-04-22T18:07:20.356Z,99097.16
2019-04-22T18:10:14.270Z,99106.06
2019-04-22T18:12:12.238Z,99092.47
2019-04-22T18:17:07.305Z,99107.38
2019-04-22T18:19:31.710Z,99086.72
2019-04-22T18:21:58.806Z,99091.21
2019-04-22T18:24:20.112Z,99092.51
2019-04-22T18:26:57.852Z,99092.20
2019-04-22T18:29:31.051Z,99110.45
2019-04-22T18:31:47.555Z,99096.68
2019-04-22T18:34:21.279Z,99096.75
2019-04-22T18:36:52.038Z,99079.66
2019-04-22T18:39:28.542Z,99100.13
2019-04-22T18:41:51.915Z,99098.44
2019-04-22T18:44:27.200Z,99102.70
2019-04-22T18:46:54.981Z,99098.44
2019-04-22T18:49:24.448Z,99082.91
2019-04-22T18:52:01.101Z,99098.16
2019-04-22T18:55:04.123Z,99089.97
2019-04-22T18:57:42.716Z,99102.02
2019-04-22T19:00:02.599Z,99105.31
2019-04-22T19:02:30.560Z,99113.50
2019-04-22T19:05:09.818Z,99116.63
2019-04-22T19:07:54.885Z,99117.18
2019-04-22T19:10:17.460Z,99110.14
2019-04-22T19:13:00.659Z,99116.03
2019-04-22T19:15:22.657Z,99122.01
2019-04-22T19:17:46.334Z,99126.58
2019-04-22T19:20:15.278Z,99129.41
2019-04-22T19:22:48.462Z,99132.19
2019-04-22T19:24:59.993Z,99125.09
2019-04-22T19:27:36.065Z,99125.48
2019-04-22T19:30:13.804Z,99139.03
2019-04-22T19:32:39.986Z,99132.84
2019-04-22T19:34:57.377Z,99135.28
2019-04-22T19:37:28.471Z,99127.54
2019-04-22T19:40:09.997Z,99132.46
2019-04-22T19:42:38.734Z,99138.88
2019-04-22T19:44:55.279Z,99132.94
2019-04-22T19:47:30.332Z,99146.89
2019-04-22T19:50:05.939Z,99140.42
2019-04-22T19:52:29.260Z,99140.45
2019-04-22T19:54:55.032Z,99142.39
2019-04-22T19:57:17.392Z,99139.19
2019-04-22T19:59:50.868Z,99148.03
2019-04-22T20:02:42.314Z,99142.50
2019-04-22T20:05:26.696Z,99134.19
2019-04-22T20:07:41.727Z,99134.36
2019-04-22T20:10:20.738Z,99128.18
2019-04-22T20:12:42.884Z,99137.18
2019-04-22T20:15:13.825Z,99138.80
2019-04-22T20:18:07.276Z,99130.52
2019-04-22T20:20:17.427Z,99132.30
2019-04-22T20:22:37.225Z,99138.98
2019-04-22T20:24:56.446Z,99136.38
2019-04-22T20:27:39.298Z,99133.77
2019-04-22T20:30:10.021Z,99136.36
2019-04-22T20:32:31.037Z,99133.45
2019-04-22T20:35:14.101Z,99141.27
2019-04-22T20:37:41.088Z,99132.30
2019-04-22T20:40:02.429Z,99137.03
2019-04-22T20:45:05.706Z,99124.32
2019-04-22T20:47:21.721Z,99131.17
2019-04-22T20:50:01.915Z,99127.27
2019-04-22T20:52:36.681Z,99123.51
2019-04-22T20:54:55.941Z,99092.86
2019-04-22T20:57:24.118Z,99116.17
2019-04-22T20:59:49.861Z,99112.75
2019-04-22T21:02:15.282Z,99111.44
2019-04-22T21:04:41.384Z,99122.20
2019-04-22T21:07:16.752Z,99105.72
2019-04-22T21:09:43.246Z,99114.37
2019-04-22T21:12:09.023Z,99107.34
2019-04-22T21:14:52.852Z,99101.80
2019-04-22T21:17:13.055Z,99109.92
2019-04-22T21:19:47.975Z,99104.23
2019-04-22T21:22:18.122Z,99094.30
2019-04-22T21:24:34.740Z,99105.36
2019-04-22T21:27:13.866Z,99100.48
2019-04-22T21:29:34.705Z,99090.53
2019-04-22T21:32:07.854Z,99091.98
2019-04-22T21:34:32.015Z,99089.05
2019-04-22T21:37:07.962Z,99082.02
2019-04-22T21:39:26.314Z,99075.30
2019-04-22T21:42:03.427Z,99070.88
2019-04-22T21:44:25.944Z,99070.53
2019-04-22T21:47:08.646Z,99053.77
2019-04-22T21:49:32.527Z,99053.72
2019-04-22T21:51:53.804Z,99043.98
2019-04-22T21:54:28.615Z,99042.73
2019-04-22T21:57:19.995Z,99047.58
2019-04-22T21:59:34.272Z,99032.11
2019-04-22T22:02:13.877Z,99034.05
2019-04-22T22:04:36.373Z,99022.16
2019-04-22T22:06:55.291Z,99021.28
2019-04-22T22:09:37.679Z,99020.11
2019-04-22T22:12:05.239Z,99032.80
2019-04-22T22:14:31.673Z,99022.94
2019-04-22T22:16:53.385Z,99017.81
2019-04-22T22:19:28.728Z,99022.69
2019-04-22T22:22:13.577Z,99020.33
2019-04-22T22:24:35.879Z,99022.65
2019-04-22T22:26:55.575Z,99024.47
2019-04-22T22:29:36.800Z,99014.46
2019-04-22T22:31:58.094Z,99019.77
2019-04-22T22:34:22.311Z,99015.90
2019-04-22T22:36:46.468Z,99014.34
2019-04-22T22:39:14.094Z,99013.61
2019-04-22T22:41:29.968Z,99016.72
2019-04-22T22:44:06.855Z,99015.45
2019-04-22T22:46:34.131Z,99017.16
2019-04-22T22:49:18.558Z,99015.55
2019-04-22T22:51:57.363Z,99009.75
2019-04-22T22:54:17.606Z,99003.10
2019-04-22T22:56:47.461Z,99002.98
2019-04-22T22:59:11.178Z,99005.91
2019-04-22T23:01:40.783Z,99000.03
2019-04-22T23:04:09.930Z,99000.13
2019-04-22T23:06:40.684Z,98993.20
2019-04-22T23:09:04.150Z,98988.52
2019-04-22T23:11:52.423Z,98988.36
2019-04-22T23:14:05.377Z,98978.56
2019-04-22T23:16:17.635Z,98981.27
2019-04-22T23:18:57.603Z,98968.41
2019-04-22T23:21:31.395Z,98971.20
2019-04-22T23:24:12.412Z,98968.75
2019-04-22T23:26:41.998Z,98958.56
2019-04-22T23:29:10.440Z,98968.59
2019-04-22T23:31:41.983Z,98963.17
2019-04-22T23:34:18.196Z,98958.85
2019-04-22T23:37:10.461Z,98954.25
2019-04-22T23:39:52.228Z,98946.28
2019-04-22T23:42:18.927Z,98952.33
2019-04-22T23:44:46.982Z,98946.36
2019-04-22T23:47:27.203Z,98943.77
2019-04-22T23:49:56.506Z,98936.91
2019-04-22T23:52:30.614Z,98929.21
2019-04-22T23:55:06.869Z,98923.06
2019-04-22T23:57:34.824Z,98920.98
